sensor_id;sensor_type;location;lat;lon;timestamp;temperature;humidity
68109;SHT30;54893;49.864;19.084;2022-12-07T00:00:11;1.99;99.77
68109;SHT30;54893;49.864;19.084;2022-12-07T00:05:12;1.99;99.85
68109;SHT30;54893;49.864;19.084;2022-12-07T00:10:12;2.04;99.86
68109;SHT30;54893;49.864;19.084;2022-12-07T00:15:12;2.11;99.63
68109;SHT30;54893;49.864;19.084;2022-12-07T00:20:13;2.13;99.56
68109;SHT30;54893;49.864;19.084;2022-12-07T00:25:13;2.14;99.53
68109;SHT30;54893;49.864;19.084;2022-12-07T00:30:14;2.18;99.50
68109;SHT30;54893;49.864;19.084;2022-12-07T00:35:14;2.16;99.31
68109;SHT30;54893;49.864;19.084;2022-12-07T00:40:15;2.18;99.45
68109;SHT30;54893;49.864;19.084;2022-12-07T00:45:15;2.24;99.50
68109;SHT30;54893;49.864;19.084;2022-12-07T00:50:15;2.24;99.46
68109;SHT30;54893;49.864;19.084;2022-12-07T00:55:16;2.24;99.55
68109;SHT30;54893;49.864;19.084;2022-12-07T01:00:16;2.23;99.54
68109;SHT30;54893;49.864;19.084;2022-12-07T01:05:17;2.24;99.66
68109;SHT30;54893;49.864;19.084;2022-12-07T01:10:17;2.23;99.66
68109;SHT30;54893;49.864;19.084;2022-12-07T01:15:17;2.24;99.75
68109;SHT30;54893;49.864;19.084;2022-12-07T01:20:18;2.38;99.44
68109;SHT30;54893;49.864;19.084;2022-12-07T01:25:18;2.55;98.64
68109;SHT30;54893;49.864;19.084;2022-12-07T01:30:19;2.52;98.00
68109;SHT30;54893;49.864;19.084;2022-12-07T01:35:19;2.62;97.86
68109;SHT30;54893;49.864;19.084;2022-12-07T01:40:19;2.64;97.47
68109;SHT30;54893;49.864;19.084;2022-12-07T01:45:40;2.65;97.56
68109;SHT30;54893;49.864;19.084;2022-12-07T01:50:42;2.68;97.31
68109;SHT30;54893;49.864;19.084;2022-12-07T01:55:45;2.68;97.24
68109;SHT30;54893;49.864;19.084;2022-12-07T02:00:47;2.72;96.74
68109;SHT30;54893;49.864;19.084;2022-12-07T02:05:49;2.72;97.11
68109;SHT30;54893;49.864;19.084;2022-12-07T02:10:49;2.80;96.55
68109;SHT30;54893;49.864;19.084;2022-12-07T02:26:55;2.70;97.02
68109;SHT30;54893;49.864;19.084;2022-12-07T02:32:17;2.65;97.01
68109;SHT30;54893;49.864;19.084;2022-12-07T02:37:48;2.61;97.21
68109;SHT30;54893;49.864;19.084;2022-12-07T02:42:58;2.74;96.74
68109;SHT30;54893;49.864;19.084;2022-12-07T02:48:00;2.74;96.63
68109;SHT30;54893;49.864;19.084;2022-12-07T02:53:01;2.77;96.36
68109;SHT30;54893;49.864;19.084;2022-12-07T03:03:15;2.81;96.38
68109;SHT30;54893;49.864;19.084;2022-12-07T03:19:01;2.85;95.44
68109;SHT30;54893;49.864;19.084;2022-12-07T03:24:07;2.68;96.12
68109;SHT30;54893;49.864;19.084;2022-12-07T03:29:14;2.66;96.11
68109;SHT30;54893;49.864;19.084;2022-12-07T03:39:30;2.66;95.89
68109;SHT30;54893;49.864;19.084;2022-12-07T03:44:34;2.70;95.76
68109;SHT30;54893;49.864;19.084;2022-12-07T03:49:41;2.60;96.12
68109;SHT30;54893;49.864;19.084;2022-12-07T03:54:58;2.57;96.34
68109;SHT30;54893;49.864;19.084;2022-12-07T04:00:02;2.58;96.29
68109;SHT30;54893;49.864;19.084;2022-12-07T04:05:04;2.66;95.88
68109;SHT30;54893;49.864;19.084;2022-12-07T04:10:05;2.55;96.27
68109;SHT30;54893;49.864;19.084;2022-12-07T04:15:06;2.48;96.66
68109;SHT30;54893;49.864;19.084;2022-12-07T04:20:07;2.54;96.41
68109;SHT30;54893;49.864;19.084;2022-12-07T04:25:08;2.48;96.60
68109;SHT30;54893;49.864;19.084;2022-12-07T04:30:08;2.48;96.79
68109;SHT30;54893;49.864;19.084;2022-12-07T04:35:09;2.50;96.67
68109;SHT30;54893;49.864;19.084;2022-12-07T04:40:11;2.42;96.88
68109;SHT30;54893;49.864;19.084;2022-12-07T04:45:12;2.42;97.08
68109;SHT30;54893;49.864;19.084;2022-12-07T04:50:13;2.34;97.41
68109;SHT30;54893;49.864;19.084;2022-12-07T04:55:13;2.30;97.62
68109;SHT30;54893;49.864;19.084;2022-12-07T05:00:14;2.30;97.59
68109;SHT30;54893;49.864;19.084;2022-12-07T05:05:14;2.21;97.66
68109;SHT30;54893;49.864;19.084;2022-12-07T05:10:14;2.26;97.62
68109;SHT30;54893;49.864;19.084;2022-12-07T05:15:15;2.27;97.43
68109;SHT30;54893;49.864;19.084;2022-12-07T05:20:16;2.21;97.46
68109;SHT30;54893;49.864;19.084;2022-12-07T05:25:16;2.18;97.45
68109;SHT30;54893;49.864;19.084;2022-12-07T05:30:16;2.10;97.83
68109;SHT30;54893;49.864;19.084;2022-12-07T05:35:17;2.13;97.86
68109;SHT30;54893;49.864;19.084;2022-12-07T05:40:18;2.14;97.70
68109;SHT30;54893;49.864;19.084;2022-12-07T05:45:19;2.14;97.61
68109;SHT30;54893;49.864;19.084;2022-12-07T05:50:19;2.00;98.12
68109;SHT30;54893;49.864;19.084;2022-12-07T05:55:20;2.02;98.28
68109;SHT30;54893;49.864;19.084;2022-12-07T06:00:20;1.89;98.39
68109;SHT30;54893;49.864;19.084;2022-12-07T06:05:21;1.96;98.35
68109;SHT30;54893;49.864;19.084;2022-12-07T06:10:21;1.86;98.59
68109;SHT30;54893;49.864;19.084;2022-12-07T06:15:21;1.79;98.63
68109;SHT30;54893;49.864;19.084;2022-12-07T06:20:23;1.76;98.96
68109;SHT30;54893;49.864;19.084;2022-12-07T06:25:23;1.80;98.68
68109;SHT30;54893;49.864;19.084;2022-12-07T06:30:23;1.69;98.78
68109;SHT30;54893;49.864;19.084;2022-12-07T06:35:24;1.69;98.95
68109;SHT30;54893;49.864;19.084;2022-12-07T06:40:24;1.64;99.14
68109;SHT30;54893;49.864;19.084;2022-12-07T06:45:24;1.67;99.30
68109;SHT30;54893;49.864;19.084;2022-12-07T06:50:25;1.70;99.11
68109;SHT30;54893;49.864;19.084;2022-12-07T06:55:25;1.70;99.02
68109;SHT30;54893;49.864;19.084;2022-12-07T07:00:26;1.63;99.14
68109;SHT30;54893;49.864;19.084;2022-12-07T07:05:26;1.58;99.36
68109;SHT30;54893;49.864;19.084;2022-12-07T07:10:26;1.52;99.54
68109;SHT30;54893;49.864;19.084;2022-12-07T07:15:27;1.58;99.66
68109;SHT30;54893;49.864;19.084;2022-12-07T07:20:27;1.64;99.34
68109;SHT30;54893;49.864;19.084;2022-12-07T07:25:27;1.69;99.18
68109;SHT30;54893;49.864;19.084;2022-12-07T07:30:28;1.73;98.99
68109;SHT30;54893;49.864;19.084;2022-12-07T07:35:29;1.83;98.89
68109;SHT30;54893;49.864;19.084;2022-12-07T07:40:30;1.90;99.00
68109;SHT30;54893;49.864;19.084;2022-12-07T07:45:30;1.83;98.54
68109;SHT30;54893;49.864;19.084;2022-12-07T07:50:31;1.72;98.87
68109;SHT30;54893;49.864;19.084;2022-12-07T07:55:31;1.73;98.11
68109;SHT30;54893;49.864;19.084;2022-12-07T08:00:31;1.39;98.62
68109;SHT30;54893;49.864;19.084;2022-12-07T08:05:32;1.38;99.05
68109;SHT30;54893;49.864;19.084;2022-12-07T08:10:32;1.35;99.28
68109;SHT30;54893;49.864;19.084;2022-12-07T08:15:36;1.48;99.22
68109;SHT30;54893;49.864;19.084;2022-12-07T08:20:38;1.49;99.38
68109;SHT30;54893;49.864;19.084;2022-12-07T08:25:39;1.55;99.35
68109;SHT30;54893;49.864;19.084;2022-12-07T08:30:39;1.53;99.31
68109;SHT30;54893;49.864;19.084;2022-12-07T08:35:40;1.56;99.20
68109;SHT30;54893;49.864;19.084;2022-12-07T08:40:40;1.64;99.21
68109;SHT30;54893;49.864;19.084;2022-12-07T08:45:40;1.73;98.84
68109;SHT30;54893;49.864;19.084;2022-12-07T08:50:41;1.83;98.66
68109;SHT30;54893;49.864;19.084;2022-12-07T08:55:41;1.96;98.28
68109;SHT30;54893;49.864;19.084;2022-12-07T09:00:42;2.04;97.97
68109;SHT30;54893;49.864;19.084;2022-12-07T09:05:42;2.13;97.56
68109;SHT30;54893;49.864;19.084;2022-12-07T09:10:42;2.11;97.50
68109;SHT30;54893;49.864;19.084;2022-12-07T09:15:43;2.18;97.42
68109;SHT30;54893;49.864;19.084;2022-12-07T09:20:43;2.26;96.92
68109;SHT30;54893;49.864;19.084;2022-12-07T09:25:43;2.27;96.93
68109;SHT30;54893;49.864;19.084;2022-12-07T09:30:48;2.31;96.82
68109;SHT30;54893;49.864;19.084;2022-12-07T09:35:50;2.40;96.24
68109;SHT30;54893;49.864;19.084;2022-12-07T09:40:50;2.41;96.11
68109;SHT30;54893;49.864;19.084;2022-12-07T09:45:53;2.48;95.92
68109;SHT30;54893;49.864;19.084;2022-12-07T09:50:57;2.58;94.78
68109;SHT30;54893;49.864;19.084;2022-12-07T09:55:59;2.68;94.70
68109;SHT30;54893;49.864;19.084;2022-12-07T10:06:12;2.82;93.43
68109;SHT30;54893;49.864;19.084;2022-12-07T10:11:12;2.89;93.50
68109;SHT30;54893;49.864;19.084;2022-12-07T10:21:26;3.18;91.29
68109;SHT30;54893;49.864;19.084;2022-12-07T10:26:30;3.18;91.58
68109;SHT30;54893;49.864;19.084;2022-12-07T10:31:30;3.28;90.09
68109;SHT30;54893;49.864;19.084;2022-12-07T10:36:36;3.46;89.40
68109;SHT30;54893;49.864;19.084;2022-12-07T10:42:01;3.48;88.63
68109;SHT30;54893;49.864;19.084;2022-12-07T10:57:51;3.70;86.92
68109;SHT30;54893;49.864;19.084;2022-12-07T11:13:33;3.77;85.22
68109;SHT30;54893;49.864;19.084;2022-12-07T11:18:56;3.72;85.10
68109;SHT30;54893;49.864;19.084;2022-12-07T11:24:15;3.82;85.08
68109;SHT30;54893;49.864;19.084;2022-12-07T11:39:55;3.48;86.67
68109;SHT30;54893;49.864;19.084;2022-12-07T11:50:20;3.52;86.03
68109;SHT30;54893;49.864;19.084;2022-12-07T12:00:43;2.99;88.15
68109;SHT30;54893;49.864;19.084;2022-12-07T12:05:43;3.15;88.22
68109;SHT30;54893;49.864;19.084;2022-12-07T12:11:08;3.28;88.23
68109;SHT30;54893;49.864;19.084;2022-12-07T12:21:38;3.70;87.03
68109;SHT30;54893;49.864;19.084;2022-12-07T12:26:39;4.05;84.96
68109;SHT30;54893;49.864;19.084;2022-12-07T12:32:13;3.80;84.44
68109;SHT30;54893;49.864;19.084;2022-12-07T12:37:52;4.01;84.27
68109;SHT30;54893;49.864;19.084;2022-12-07T12:42:54;4.14;82.22
68109;SHT30;54893;49.864;19.084;2022-12-07T12:58:31;3.94;82.60
68109;SHT30;54893;49.864;19.084;2022-12-07T13:03:32;3.79;82.88
68109;SHT30;54893;49.864;19.084;2022-12-07T13:08:35;3.72;83.27
68109;SHT30;54893;49.864;19.084;2022-12-07T13:13:36;3.60;83.90
68109;SHT30;54893;49.864;19.084;2022-12-07T13:18:37;3.55;84.27
68109;SHT30;54893;49.864;19.084;2022-12-07T13:23:54;3.62;83.31
68109;SHT30;54893;49.864;19.084;2022-12-07T13:39:33;3.32;85.34
68109;SHT30;54893;49.864;19.084;2022-12-07T13:44:40;3.25;85.58
68109;SHT30;54893;49.864;19.084;2022-12-07T13:49:52;3.15;86.05
68109;SHT30;54893;49.864;19.084;2022-12-07T13:54:58;3.15;86.06
68109;SHT30;54893;49.864;19.084;2022-12-07T14:00:00;3.09;86.23
68109;SHT30;54893;49.864;19.084;2022-12-07T14:05:14;3.12;86.26
68109;SHT30;54893;49.864;19.084;2022-12-07T14:10:32;3.26;85.57
68109;SHT30;54893;49.864;19.084;2022-12-07T14:15:34;3.13;85.79
68109;SHT30;54893;49.864;19.084;2022-12-07T14:20:39;3.15;85.84
68109;SHT30;54893;49.864;19.084;2022-12-07T14:25:48;3.12;85.96
68109;SHT30;54893;49.864;19.084;2022-12-07T14:30:48;3.08;85.83
68109;SHT30;54893;49.864;19.084;2022-12-07T14:35:48;2.95;86.78
68109;SHT30;54893;49.864;19.084;2022-12-07T14:40:50;3.06;85.82
68109;SHT30;54893;49.864;19.084;2022-12-07T14:45:51;2.92;86.48
68109;SHT30;54893;49.864;19.084;2022-12-07T14:50:52;2.96;85.87
68109;SHT30;54893;49.864;19.084;2022-12-07T14:55:53;2.92;86.13
68109;SHT30;54893;49.864;19.084;2022-12-07T15:00:53;3.01;85.33
68109;SHT30;54893;49.864;19.084;2022-12-07T15:05:54;2.88;85.92
68109;SHT30;54893;49.864;19.084;2022-12-07T15:10:54;2.91;85.60
68109;SHT30;54893;49.864;19.084;2022-12-07T15:15:55;2.82;86.03
68109;SHT30;54893;49.864;19.084;2022-12-07T15:20:55;2.82;86.02
68109;SHT30;54893;49.864;19.084;2022-12-07T15:25:55;2.84;85.70
68109;SHT30;54893;49.864;19.084;2022-12-07T15:30:55;2.80;85.71
68109;SHT30;54893;49.864;19.084;2022-12-07T15:35:58;2.81;85.28
68109;SHT30;54893;49.864;19.084;2022-12-07T15:40:59;2.81;85.10
68109;SHT30;54893;49.864;19.084;2022-12-07T15:45:59;2.81;84.41
68109;SHT30;54893;49.864;19.084;2022-12-07T15:51:04;2.81;84.11
68109;SHT30;54893;49.864;19.084;2022-12-07T15:56:08;2.81;84.02
68109;SHT30;54893;49.864;19.084;2022-12-07T16:01:13;2.81;83.52
68109;SHT30;54893;49.864;19.084;2022-12-07T16:06:17;2.82;83.61
68109;SHT30;54893;49.864;19.084;2022-12-07T16:11:18;2.74;83.97
68109;SHT30;54893;49.864;19.084;2022-12-07T16:16:19;2.72;83.98
68109;SHT30;54893;49.864;19.084;2022-12-07T16:21:21;2.75;83.63
68109;SHT30;54893;49.864;19.084;2022-12-07T16:26:22;2.71;84.00
68109;SHT30;54893;49.864;19.084;2022-12-07T16:31:24;2.68;83.80
68109;SHT30;54893;49.864;19.084;2022-12-07T16:36:25;2.60;84.18
68109;SHT30;54893;49.864;19.084;2022-12-07T16:41:27;2.51;84.61
68109;SHT30;54893;49.864;19.084;2022-12-07T16:46:27;2.48;84.96
68109;SHT30;54893;49.864;19.084;2022-12-07T16:51:28;2.38;85.29
68109;SHT30;54893;49.864;19.084;2022-12-07T16:56:29;2.37;85.07
68109;SHT30;54893;49.864;19.084;2022-12-07T17:01:29;2.33;84.84
68109;SHT30;54893;49.864;19.084;2022-12-07T17:06:31;2.16;85.43
68109;SHT30;54893;49.864;19.084;2022-12-07T17:11:31;2.16;85.21
68109;SHT30;54893;49.864;19.084;2022-12-07T17:16:32;2.03;85.84
68109;SHT30;54893;49.864;19.084;2022-12-07T17:21:32;2.04;85.88
68109;SHT30;54893;49.864;19.084;2022-12-07T17:26:33;2.02;85.87
68109;SHT30;54893;49.864;19.084;2022-12-07T17:31:35;2.00;86.01
68109;SHT30;54893;49.864;19.084;2022-12-07T17:36:35;1.89;86.62
68109;SHT30;54893;49.864;19.084;2022-12-07T17:41:36;1.93;86.38
68109;SHT30;54893;49.864;19.084;2022-12-07T17:46:56;1.79;87.07
68109;SHT30;54893;49.864;19.084;2022-12-07T17:52:01;1.87;86.88
68109;SHT30;54893;49.864;19.084;2022-12-07T17:57:20;1.83;87.02
68109;SHT30;54893;49.864;19.084;2022-12-07T18:02:20;1.89;86.84
68109;SHT30;54893;49.864;19.084;2022-12-07T18:07:21;1.77;87.56
68109;SHT30;54893;49.864;19.084;2022-12-07T18:12:21;1.79;87.31
68109;SHT30;54893;49.864;19.084;2022-12-07T18:17:21;1.86;87.28
68109;SHT30;54893;49.864;19.084;2022-12-07T18:22:22;2.02;86.87
68109;SHT30;54893;49.864;19.084;2022-12-07T18:27:22;2.30;85.60
68109;SHT30;54893;49.864;19.084;2022-12-07T18:32:22;2.31;85.74
68109;SHT30;54893;49.864;19.084;2022-12-07T18:37:23;2.45;85.25
68109;SHT30;54893;49.864;19.084;2022-12-07T18:42:26;2.48;84.39
68109;SHT30;54893;49.864;19.084;2022-12-07T18:47:26;2.58;83.98
68109;SHT30;54893;49.864;19.084;2022-12-07T18:52:27;2.52;83.86
68109;SHT30;54893;49.864;19.084;2022-12-07T18:57:30;2.57;83.33
68109;SHT30;54893;49.864;19.084;2022-12-07T19:02:30;2.60;82.54
68109;SHT30;54893;49.864;19.084;2022-12-07T19:07:31;2.57;82.70
68109;SHT30;54893;49.864;19.084;2022-12-07T19:12:31;2.60;81.91
68109;SHT30;54893;49.864;19.084;2022-12-07T19:17:32;2.57;81.50
68109;SHT30;54893;49.864;19.084;2022-12-07T19:22:32;2.55;81.16
68109;SHT30;54893;49.864;19.084;2022-12-07T19:27:33;2.51;81.00
68109;SHT30;54893;49.864;19.084;2022-12-07T19:32:33;2.60;79.95
68109;SHT30;54893;49.864;19.084;2022-12-07T19:37:33;2.40;80.36
68109;SHT30;54893;49.864;19.084;2022-12-07T19:42:34;2.38;80.56
68109;SHT30;54893;49.864;19.084;2022-12-07T19:47:34;2.47;79.95
68109;SHT30;54893;49.864;19.084;2022-12-07T19:52:35;2.47;79.43
68109;SHT30;54893;49.864;19.084;2022-12-07T19:57:35;2.52;79.38
68109;SHT30;54893;49.864;19.084;2022-12-07T20:02:36;2.48;79.95
68109;SHT30;54893;49.864;19.084;2022-12-07T20:07:36;2.45;80.01
68109;SHT30;54893;49.864;19.084;2022-12-07T20:12:38;2.60;79.18
68109;SHT30;54893;49.864;19.084;2022-12-07T20:17:57;2.54;79.28
68109;SHT30;54893;49.864;19.084;2022-12-07T20:22:57;2.54;79.08
68109;SHT30;54893;49.864;19.084;2022-12-07T20:27:57;2.62;78.93
68109;SHT30;54893;49.864;19.084;2022-12-07T20:32:58;2.75;78.22
68109;SHT30;54893;49.864;19.084;2022-12-07T20:37:58;2.80;77.84
68109;SHT30;54893;49.864;19.084;2022-12-07T20:42:58;2.81;78.04
68109;SHT30;54893;49.864;19.084;2022-12-07T20:47:59;2.77;78.24
68109;SHT30;54893;49.864;19.084;2022-12-07T20:52:59;2.81;78.44
68109;SHT30;54893;49.864;19.084;2022-12-07T20:57:59;2.92;77.89
68109;SHT30;54893;49.864;19.084;2022-12-07T21:03:00;2.85;78.35
68109;SHT30;54893;49.864;19.084;2022-12-07T21:08:01;2.84;78.57
68109;SHT30;54893;49.864;19.084;2022-12-07T21:13:01;2.85;78.50
68109;SHT30;54893;49.864;19.084;2022-12-07T21:18:01;2.87;78.58
68109;SHT30;54893;49.864;19.084;2022-12-07T21:23:02;2.75;79.55
68109;SHT30;54893;49.864;19.084;2022-12-07T21:28:02;2.95;78.57
68109;SHT30;54893;49.864;19.084;2022-12-07T21:33:03;2.85;79.12
68109;SHT30;54893;49.864;19.084;2022-12-07T21:38:03;2.95;79.00
68109;SHT30;54893;49.864;19.084;2022-12-07T21:43:03;2.88;79.41
68109;SHT30;54893;49.864;19.084;2022-12-07T21:48:04;2.81;79.93
68109;SHT30;54893;49.864;19.084;2022-12-07T21:53:04;2.92;79.69
68109;SHT30;54893;49.864;19.084;2022-12-07T21:58:05;2.78;80.42
68109;SHT30;54893;49.864;19.084;2022-12-07T22:03:05;2.95;79.46
68109;SHT30;54893;49.864;19.084;2022-12-07T22:08:06;2.84;80.09
68109;SHT30;54893;49.864;19.084;2022-12-07T22:13:07;2.81;80.34
68109;SHT30;54893;49.864;19.084;2022-12-07T22:18:08;2.65;80.94
68109;SHT30;54893;49.864;19.084;2022-12-07T22:23:09;2.66;80.84
68109;SHT30;54893;49.864;19.084;2022-12-07T22:28:09;2.58;81.00
68109;SHT30;54893;49.864;19.084;2022-12-07T22:33:09;2.65;80.80
68109;SHT30;54893;49.864;19.084;2022-12-07T22:38:09;2.61;81.17
68109;SHT30;54893;49.864;19.084;2022-12-07T22:43:11;2.65;80.91
68109;SHT30;54893;49.864;19.084;2022-12-07T22:48:11;2.60;81.33
68109;SHT30;54893;49.864;19.084;2022-12-07T22:53:12;2.58;81.45
68109;SHT30;54893;49.864;19.084;2022-12-07T22:58:12;2.55;81.62
68109;SHT30;54893;49.864;19.084;2022-12-07T23:03:13;2.65;81.15
68109;SHT30;54893;49.864;19.084;2022-12-07T23:08:14;2.54;81.59
68109;SHT30;54893;49.864;19.084;2022-12-07T23:13:16;2.54;81.61
68109;SHT30;54893;49.864;19.084;2022-12-07T23:18:32;2.55;81.64
68109;SHT30;54893;49.864;19.084;2022-12-07T23:23:33;2.62;81.09
68109;SHT30;54893;49.864;19.084;2022-12-07T23:28:33;2.58;81.42
68109;SHT30;54893;49.864;19.084;2022-12-07T23:33:34;2.60;81.58
68109;SHT30;54893;49.864;19.084;2022-12-07T23:38:34;2.54;81.84
68109;SHT30;54893;49.864;19.084;2022-12-07T23:43:35;2.58;81.71
68109;SHT30;54893;49.864;19.084;2022-12-07T23:48:37;2.52;82.24
68109;SHT30;54893;49.864;19.084;2022-12-07T23:53:40;2.47;82.25
68109;SHT30;54893;49.864;19.084;2022-12-07T23:58:41;2.47;82.33
